createdAt,value
2018-09-27T00:00:35.367Z,99.32
2018-09-27T00:01:44.018Z,99.42
2018-09-27T00:02:52.649Z,99.99
2018-09-27T00:04:01.297Z,99.99
2018-09-27T00:05:09.936Z,99.99
2018-09-27T00:06:18.591Z,99.99
2018-09-27T00:07:27.226Z,99.99
2018-09-27T00:08:35.878Z,99.99
2018-09-27T00:09:44.787Z,99.99
2018-09-27T00:10:53.700Z,99.99
2018-09-27T00:12:02.605Z,99.99
2018-09-27T00:13:11.243Z,99.95
2018-09-27T00:14:19.887Z,99.99
2018-09-27T00:15:28.786Z,99.99
2018-09-27T00:16:37.438Z,99.99
2018-09-27T00:17:46.076Z,99.99
2018-09-27T00:18:54.723Z,99.99
2018-09-27T00:20:03.621Z,99.99
2018-09-27T00:21:12.270Z,99.99
2018-09-27T00:22:21.173Z,99.99
2018-09-27T00:23:29.819Z,99.99
2018-09-27T00:24:38.726Z,99.99
2018-09-27T00:25:47.379Z,99.99
2018-09-27T00:26:56.020Z,99.99
2018-09-27T00:28:04.925Z,99.99
2018-09-27T00:29:13.559Z,99.99
2018-09-27T00:30:22.475Z,99.99
2018-09-27T00:31:31.384Z,99.99
2018-09-27T00:32:40.039Z,99.99
2018-09-27T00:33:48.948Z,99.99
2018-09-27T00:34:57.583Z,99.99
2018-09-27T00:36:06.231Z,99.99
2018-09-27T00:37:14.868Z,99.99
2018-09-27T00:38:23.520Z,99.99
2018-09-27T00:39:32.153Z,99.99
2018-09-27T00:40:40.802Z,99.99
2018-09-27T00:41:49.440Z,99.99
2018-09-27T00:42:58.094Z,99.99
2018-09-27T00:44:08.336Z,99.99
2018-09-27T00:45:16.983Z,99.99
2018-09-27T00:46:26.151Z,99.99
2018-09-27T00:47:34.802Z,99.99
2018-09-27T00:48:43.443Z,99.99
2018-09-27T00:49:52.350Z,99.99
2018-09-27T00:51:01.015Z,99.99
2018-09-27T00:52:09.628Z,99.99
2018-09-27T00:53:18.540Z,99.99
2018-09-27T00:54:27.441Z,99.99
2018-09-27T00:55:36.083Z,99.99
2018-09-27T00:56:44.719Z,99.99
2018-09-27T00:57:53.367Z,99.99
2018-09-27T00:59:02.013Z,99.99
2018-09-27T01:00:10.653Z,99.99
2018-09-27T01:01:19.555Z,99.99
2018-09-27T01:02:28.203Z,99.99
2018-09-27T01:03:36.845Z,99.99
2018-09-27T01:04:45.489Z,99.99
2018-09-27T01:05:54.125Z,99.99
2018-09-27T01:07:02.777Z,99.99
2018-09-27T01:08:11.410Z,99.99
2018-09-27T01:09:20.057Z,99.99
2018-09-27T01:10:28.702Z,99.99
2018-09-27T01:11:37.340Z,99.99
2018-09-27T01:12:45.986Z,99.99
2018-09-27T01:13:54.624Z,99.99
2018-09-27T01:15:03.270Z,99.99
2018-09-27T01:16:11.905Z,99.99
2018-09-27T01:17:20.545Z,99.99
2018-09-27T01:18:29.446Z,99.99
2018-09-27T01:19:38.620Z,99.99
2018-09-27T01:20:47.519Z,99.99
2018-09-27T01:21:56.162Z,99.99
2018-09-27T01:23:04.802Z,99.99
2018-09-27T01:24:13.501Z,99.99
2018-09-27T01:25:22.096Z,99.99
2018-09-27T01:26:30.733Z,99.99
2018-09-27T01:27:39.374Z,99.99
2018-09-27T01:28:48.018Z,99.99
2018-09-27T01:29:56.933Z,99.99
2018-09-27T01:31:05.573Z,99.99
2018-09-27T01:32:14.217Z,99.99
2018-09-27T01:33:22.861Z,99.99
2018-09-27T01:34:31.509Z,99.99
2018-09-27T01:35:40.414Z,99.99
2018-09-27T01:36:49.057Z,99.99
2018-09-27T01:37:57.954Z,99.99
2018-09-27T01:39:06.870Z,99.99
2018-09-27T01:40:15.508Z,99.99
2018-09-27T01:41:24.151Z,99.99
2018-09-27T01:42:32.789Z,99.99
2018-09-27T01:43:41.697Z,99.99
2018-09-27T01:44:50.339Z,99.99
2018-09-27T01:45:58.982Z,99.99
2018-09-27T01:47:07.644Z,99.99
2018-09-27T01:48:16.265Z,99.99
2018-09-27T01:49:24.904Z,99.99
2018-09-27T01:50:33.543Z,99.99
2018-09-27T01:51:42.457Z,99.99
2018-09-27T01:52:51.093Z,99.99
2018-09-27T01:54:00.007Z,99.99
2018-09-27T01:55:08.653Z,99.99
2018-09-27T01:56:17.304Z,99.99
2018-09-27T01:57:25.938Z,99.99
2018-09-27T01:58:34.582Z,99.99
2018-09-27T01:59:43.220Z,99.99
2018-09-27T02:00:52.137Z,99.99
2018-09-27T02:02:01.038Z,99.99
2018-09-27T02:03:09.673Z,99.99
2018-09-27T02:04:18.314Z,99.99
2018-09-27T02:05:26.955Z,99.99
2018-09-27T02:06:35.605Z,99.99
2018-09-27T02:07:44.242Z,99.99
2018-09-27T02:08:52.888Z,99.99
2018-09-27T02:10:01.519Z,99.99
2018-09-27T02:11:10.167Z,99.99
2018-09-27T02:12:18.810Z,99.99
2018-09-27T02:13:27.487Z,99.99
2018-09-27T02:14:36.084Z,99.99
2018-09-27T02:15:44.736Z,99.99
2018-09-27T02:16:53.375Z,99.99
2018-09-27T02:18:02.284Z,99.99
2018-09-27T02:19:10.919Z,99.99
2018-09-27T02:20:19.570Z,99.99
2018-09-27T02:21:28.211Z,99.99
2018-09-27T02:22:37.117Z,99.99
2018-09-27T02:23:45.761Z,99.99
2018-09-27T02:24:54.399Z,99.99
2018-09-27T02:26:03.045Z,99.99
2018-09-27T02:27:11.688Z,99.99
2018-09-27T02:28:20.334Z,99.99
2018-09-27T02:29:28.965Z,99.99
2018-09-27T02:30:37.621Z,99.99
2018-09-27T02:31:46.575Z,99.99
2018-09-27T02:32:55.229Z,99.99
2018-09-27T02:34:03.855Z,99.99
2018-09-27T02:35:13.173Z,99.99
2018-09-27T02:36:21.845Z,99.99
2018-09-27T02:37:30.981Z,99.99
2018-09-27T02:38:39.949Z,99.99
2018-09-27T02:39:48.820Z,99.99
2018-09-27T02:40:57.473Z,99.99
2018-09-27T02:42:06.381Z,99.99
2018-09-27T02:43:15.030Z,99.99
2018-09-27T02:44:23.930Z,99.99
2018-09-27T02:45:32.843Z,99.99
2018-09-27T02:46:41.476Z,99.99
2018-09-27T02:47:50.135Z,99.99
2018-09-27T02:48:58.773Z,99.99
2018-09-27T02:50:07.959Z,99.99
2018-09-27T02:51:16.917Z,99.99
2018-09-27T02:52:25.565Z,99.99
2018-09-27T02:53:34.210Z,99.99
2018-09-27T02:54:43.122Z,99.99
2018-09-27T02:55:51.757Z,99.99
2018-09-27T02:57:00.408Z,99.99
2018-09-27T02:58:09.051Z,99.99
2018-09-27T02:59:17.700Z,99.99
2018-09-27T03:00:26.345Z,99.99
2018-09-27T03:01:34.987Z,99.99
2018-09-27T03:02:43.635Z,99.99
2018-09-27T03:03:52.543Z,99.99
2018-09-27T03:05:01.753Z,99.99
2018-09-27T03:06:10.365Z,99.99
2018-09-27T03:07:19.275Z,99.99
2018-09-27T03:08:27.919Z,99.99
2018-09-27T03:09:36.566Z,99.99
2018-09-27T03:10:45.486Z,99.99
2018-09-27T03:11:54.157Z,99.99
2018-09-27T03:13:03.047Z,99.99
2018-09-27T03:14:11.693Z,99.99
2018-09-27T03:15:20.336Z,99.99
2018-09-27T03:16:29.240Z,99.99
2018-09-27T03:17:37.886Z,99.99
2018-09-27T03:18:46.567Z,99.99
2018-09-27T03:19:55.464Z,99.99
2018-09-27T03:21:04.232Z,99.99
2018-09-27T03:22:12.753Z,99.99
2018-09-27T03:23:21.655Z,99.99
2018-09-27T03:24:30.300Z,99.99
2018-09-27T03:25:38.959Z,99.99
2018-09-27T03:26:47.593Z,99.99
2018-09-27T03:27:56.230Z,99.99
2018-09-27T03:29:05.140Z,99.99
2018-09-27T03:30:13.790Z,99.99
2018-09-27T03:31:22.702Z,99.99
2018-09-27T03:32:31.341Z,99.99
2018-09-27T03:33:39.988Z,99.99
2018-09-27T03:34:48.907Z,99.99
2018-09-27T03:35:57.813Z,99.99
2018-09-27T03:37:06.461Z,99.99
2018-09-27T03:38:15.104Z,99.99
2018-09-27T03:39:23.745Z,99.99
2018-09-27T03:40:32.450Z,99.99
2018-09-27T03:41:41.457Z,99.99
2018-09-27T03:42:50.366Z,99.99
2018-09-27T03:43:59.272Z,99.99
2018-09-27T03:45:07.922Z,99.99
2018-09-27T03:46:17.098Z,99.99
2018-09-27T03:47:25.744Z,99.99
2018-09-27T03:48:34.388Z,99.99
2018-09-27T03:49:43.037Z,99.99
2018-09-27T03:50:51.676Z,99.99
2018-09-27T03:52:00.590Z,99.99
2018-09-27T03:53:09.234Z,99.99
2018-09-27T03:54:18.150Z,99.99
2018-09-27T03:55:26.796Z,99.99
2018-09-27T03:56:35.433Z,99.99
2018-09-27T03:57:44.344Z,99.99
2018-09-27T03:58:52.993Z,99.99
2018-09-27T04:00:01.902Z,99.99
2018-09-27T04:01:10.544Z,99.99
2018-09-27T04:02:19.184Z,99.99
2018-09-27T04:03:28.363Z,99.99
2018-09-27T04:04:37.011Z,99.99
2018-09-27T04:05:45.645Z,99.99
2018-09-27T04:06:54.300Z,99.99
2018-09-27T04:08:03.466Z,99.99
2018-09-27T04:09:12.375Z,99.99
2018-09-27T04:10:21.012Z,99.99
2018-09-27T04:11:29.914Z,99.99
2018-09-27T04:12:38.846Z,99.99
2018-09-27T04:13:47.858Z,99.99
2018-09-27T04:14:56.504Z,99.99
2018-09-27T04:16:05.147Z,99.99
2018-09-27T04:17:13.788Z,99.99
2018-09-27T04:18:22.693Z,99.99
2018-09-27T04:19:31.340Z,99.99
2018-09-27T04:20:39.983Z,99.99
2018-09-27T04:21:48.656Z,99.99
2018-09-27T04:22:57.264Z,99.99
2018-09-27T04:24:05.973Z,99.99
2018-09-27T04:25:14.554Z,99.99
2018-09-27T04:26:23.462Z,99.99
2018-09-27T04:27:32.100Z,99.99
2018-09-27T04:28:41.024Z,99.99
2018-09-27T04:29:49.668Z,99.99
2018-09-27T04:30:58.309Z,99.99
2018-09-27T04:32:06.953Z,99.99
2018-09-27T04:33:15.594Z,99.99
2018-09-27T04:34:24.767Z,99.99
2018-09-27T04:35:33.409Z,99.28
2018-09-27T04:36:42.319Z,99.57
2018-09-27T04:37:50.957Z,99.37
2018-09-27T04:38:59.599Z,99.66
2018-09-27T04:40:08.248Z,99.28
2018-09-27T04:41:17.167Z,98.8
2018-09-27T04:42:25.808Z,98.71
2018-09-27T04:43:34.979Z,98.9
2018-09-27T04:44:43.883Z,98.8
2018-09-27T04:45:52.801Z,99.08
2018-09-27T04:47:01.430Z,99.08
2018-09-27T04:48:10.071Z,98.9
2018-09-27T04:49:18.709Z,99.99
2018-09-27T04:50:27.348Z,99.99
2018-09-27T04:51:36.002Z,99.99
2018-09-27T04:52:45.254Z,99.99
2018-09-27T04:53:53.900Z,99.99
2018-09-27T04:55:02.530Z,99.99
2018-09-27T04:56:11.186Z,99.99
2018-09-27T04:57:19.820Z,99.99
2018-09-27T04:58:28.467Z,99.99
2018-09-27T04:59:37.101Z,99.99
2018-09-27T05:00:45.753Z,99.99
2018-09-27T05:01:54.396Z,99.99
2018-09-27T05:03:03.307Z,99.99
2018-09-27T05:04:11.941Z,99.99
2018-09-27T05:05:20.584Z,99.99
2018-09-27T05:06:29.428Z,99.66
2018-09-27T05:07:37.876Z,99.37
2018-09-27T05:08:46.520Z,99.85
2018-09-27T05:09:55.156Z,99.47
2018-09-27T05:11:03.803Z,99.47
2018-09-27T05:12:12.443Z,99.18
2018-09-27T05:13:21.352Z,99.37
2018-09-27T05:14:29.983Z,98.9
2018-09-27T05:15:38.671Z,99.47
2018-09-27T05:16:47.767Z,99.28
2018-09-27T05:17:56.425Z,99.28
2018-09-27T05:19:05.325Z,99.28
2018-09-27T05:20:13.970Z,99.37
2018-09-27T05:21:22.641Z,99.66
2018-09-27T05:22:31.558Z,99.28
2018-09-27T05:23:40.199Z,98.9
2018-09-27T05:24:48.835Z,98.61
2018-09-27T05:25:57.474Z,98.9
2018-09-27T05:27:06.141Z,99.37
2018-09-27T05:28:15.092Z,99.08
2018-09-27T05:29:23.730Z,98.71
2018-09-27T05:30:32.373Z,98.8
2018-09-27T05:31:41.006Z,98.8
2018-09-27T05:32:49.655Z,98.13
2018-09-27T05:33:58.557Z,98.9
2018-09-27T05:35:07.206Z,98.03
2018-09-27T05:36:15.837Z,98.13
2018-09-27T05:37:24.489Z,97.85
2018-09-27T05:38:33.131Z,98.28
2018-09-27T05:39:41.845Z,98.52
2018-09-27T05:40:50.409Z,97.99
2018-09-27T05:41:59.055Z,98.08
2018-09-27T05:43:07.954Z,98.08
2018-09-27T05:44:16.603Z,98.08
2018-09-27T05:45:25.258Z,97.99
2018-09-27T05:46:34.158Z,98.28
2018-09-27T05:47:42.803Z,98.28
2018-09-27T05:48:51.719Z,98.08
2018-09-27T05:50:00.435Z,97.99
2018-09-27T05:51:09.270Z,97.99
2018-09-27T05:52:17.915Z,98.28
2018-09-27T05:53:26.569Z,98.08
2018-09-27T05:54:35.210Z,97.71
2018-09-27T05:55:44.121Z,97.71
2018-09-27T05:56:53.091Z,97.52
2018-09-27T05:58:01.735Z,97.52
2018-09-27T05:59:10.373Z,97.71
2018-09-27T06:00:19.018Z,97.03
2018-09-27T06:01:27.696Z,96.94
2018-09-27T06:02:36.311Z,97.23
2018-09-27T06:03:45.010Z,97.23
2018-09-27T06:04:53.613Z,96.84
2018-09-27T06:06:02.246Z,96.46
2018-09-27T06:07:10.889Z,97.13
2018-09-27T06:08:19.544Z,96.56
2018-09-27T06:09:28.811Z,96.46
2018-09-27T06:10:38.113Z,96.84
2018-09-27T06:11:46.755Z,95.89
2018-09-27T06:12:55.404Z,96.27
2018-09-27T06:14:04.042Z,96.17
2018-09-27T06:15:12.690Z,96.66
2018-09-27T06:16:21.595Z,96.75
2018-09-27T06:17:30.243Z,96.84
2018-09-27T06:18:38.883Z,95.79
2018-09-27T06:19:47.920Z,95.7
2018-09-27T06:20:56.500Z,95.89
2018-09-27T06:22:05.140Z,96.17
2018-09-27T06:23:14.051Z,96.46
2018-09-27T06:24:22.692Z,95.7
2018-09-27T06:25:31.332Z,95.51
2018-09-27T06:26:39.975Z,95.98
2018-09-27T06:27:48.618Z,95.22
2018-09-27T06:28:57.261Z,95.03
2018-09-27T06:30:05.905Z,95.12
2018-09-27T06:31:14.549Z,95.22
2018-09-27T06:32:23.190Z,94.93
2018-09-27T06:33:31.857Z,95.22
2018-09-27T06:34:40.834Z,94.93
2018-09-27T06:35:49.475Z,94.84
2018-09-27T06:36:58.378Z,95.32
2018-09-27T06:38:07.027Z,95.27
2018-09-27T06:39:15.941Z,95.07
2018-09-27T06:40:24.587Z,94.89
2018-09-27T06:41:33.369Z,94.41
2018-09-27T06:42:41.884Z,94.31
2018-09-27T06:43:50.509Z,94.31
2018-09-27T06:44:59.157Z,94.22
2018-09-27T06:46:07.792Z,94.41
2018-09-27T06:47:16.438Z,94.12
2018-09-27T06:48:25.149Z,93.84
2018-09-27T06:49:34.007Z,93.84
2018-09-27T06:50:43.015Z,92.79
2018-09-27T06:51:51.547Z,92.88
2018-09-27T06:53:00.189Z,92.88
2018-09-27T06:54:08.842Z,92.88
2018-09-27T06:55:17.856Z,92.88
2018-09-27T06:56:26.150Z,92.97
2018-09-27T06:57:35.504Z,93.07
2018-09-27T06:58:44.143Z,92.88
2018-09-27T06:59:52.797Z,92.5
2018-09-27T07:01:01.538Z,92.79
2018-09-27T07:02:10.087Z,92.59
2018-09-27T07:03:18.722Z,92.88
2018-09-27T07:04:27.376Z,93.07
2018-09-27T07:05:36.013Z,92.59
2018-09-27T07:06:44.664Z,92.64
2018-09-27T07:07:53.565Z,91.93
2018-09-27T07:09:02.220Z,91.88
2018-09-27T07:10:10.859Z,92.16
2018-09-27T07:11:19.504Z,92.25
2018-09-27T07:12:28.301Z,91.88
2018-09-27T07:13:36.785Z,91.68
2018-09-27T07:14:45.812Z,91.68
2018-09-27T07:15:54.458Z,91.68
2018-09-27T07:17:03.103Z,91.49
2018-09-27T07:18:12.003Z,91.83
2018-09-27T07:19:20.653Z,91.59
2018-09-27T07:20:29.302Z,91.49
2018-09-27T07:21:38.533Z,91.11
2018-09-27T07:22:47.172Z,91.78
2018-09-27T07:23:55.819Z,91.49
2018-09-27T07:25:04.764Z,91.02
2018-09-27T07:26:13.372Z,91.3
2018-09-27T07:27:22.009Z,91.11
2018-09-27T07:28:30.667Z,91.49
2018-09-27T07:29:39.308Z,90.63
2018-09-27T07:30:48.042Z,90.73
2018-09-27T07:31:56.694Z,91.11
2018-09-27T07:33:05.395Z,90.92
2018-09-27T07:34:14.179Z,91.97
2018-09-27T07:35:22.822Z,91.39
2018-09-27T07:36:31.570Z,90.63
2018-09-27T07:37:40.253Z,90.63
2018-09-27T07:38:49.160Z,90.53
2018-09-27T07:39:58.005Z,90.16
2018-09-27T07:41:06.781Z,90.34
2018-09-27T07:42:15.972Z,90.34
2018-09-27T07:43:24.656Z,90.16
2018-09-27T07:44:33.378Z,90.16
2018-09-27T07:45:41.992Z,89.91
2018-09-27T07:46:50.638Z,89.62
2018-09-27T07:47:59.274Z,88.81
2018-09-27T07:49:07.929Z,89.2
2018-09-27T07:50:16.568Z,90.2
2018-09-27T07:51:25.208Z,89.62
2018-09-27T07:52:34.117Z,89.15
2018-09-27T07:53:42.760Z,89.24
2018-09-27T07:54:51.484Z,88.38
2018-09-27T07:56:00.057Z,88.67
2018-09-27T07:57:08.702Z,88.67
2018-09-27T07:58:17.601Z,88.48
2018-09-27T07:59:26.518Z,88.67
2018-09-27T08:00:35.157Z,87.71
2018-09-27T08:01:43.836Z,88.09
2018-09-27T08:02:53.020Z,88.57
2018-09-27T08:04:01.575Z,88.57
2018-09-27T08:05:10.555Z,88.09
2018-09-27T08:06:19.205Z,88
2018-09-27T08:07:28.105Z,87.95
2018-09-27T08:08:36.779Z,87.27
2018-09-27T08:09:46.028Z,87.27
2018-09-27T08:10:54.706Z,87.47
2018-09-27T08:12:03.468Z,87.37
2018-09-27T08:13:11.959Z,87.56
2018-09-27T08:14:21.137Z,87.08
2018-09-27T08:15:30.093Z,86.99
2018-09-27T08:16:39.058Z,86.61
2018-09-27T08:17:47.644Z,86.99
2018-09-27T08:18:56.317Z,86.51
2018-09-27T08:20:05.495Z,86.61
2018-09-27T08:21:14.283Z,86.99
2018-09-27T08:22:22.793Z,87.37
2018-09-27T08:23:31.439Z,86.99
2018-09-27T08:24:40.080Z,86.99
2018-09-27T08:25:48.744Z,86.27
2018-09-27T08:26:57.379Z,86.36
2018-09-27T08:28:06.022Z,85.79
2018-09-27T08:29:14.664Z,86.36
2018-09-27T08:30:23.375Z,86.46
2018-09-27T08:31:31.960Z,86.46
2018-09-27T08:32:40.654Z,85.79
2018-09-27T08:33:49.251Z,85.21
2018-09-27T08:34:58.164Z,86.17
2018-09-27T08:36:06.818Z,86.94
2018-09-27T08:37:15.455Z,85.98
2018-09-27T08:38:24.177Z,85.12
2018-09-27T08:39:33.670Z,85.21
2018-09-27T08:40:42.325Z,84.16
2018-09-27T08:41:50.967Z,83.34
2018-09-27T08:42:59.613Z,82.76
2018-09-27T08:44:08.252Z,83.34
2018-09-27T08:45:17.105Z,82.96
2018-09-27T08:46:25.551Z,83.63
2018-09-27T08:47:34.197Z,83.15
2018-09-27T08:48:42.844Z,82.57
2018-09-27T08:49:51.751Z,83.15
2018-09-27T08:51:00.657Z,82.67
2018-09-27T08:52:09.300Z,82
2018-09-27T08:53:17.950Z,82
2018-09-27T08:54:26.594Z,83.15
2018-09-27T08:55:35.345Z,82.76
2018-09-27T08:56:43.884Z,82.76
2018-09-27T08:57:52.532Z,82.48
2018-09-27T08:59:01.175Z,82.29
2018-09-27T09:00:09.822Z,83.44
2018-09-27T09:01:18.465Z,84.01
2018-09-27T09:02:27.400Z,84.05
2018-09-27T09:03:36.122Z,84.01
2018-09-27T09:04:45.096Z,84.3
2018-09-27T09:05:53.780Z,84.88
2018-09-27T09:07:02.425Z,82.76
2018-09-27T09:08:11.075Z,83.63
2018-09-27T09:09:19.720Z,83.15
2018-09-27T09:10:28.367Z,83.63
2018-09-27T09:11:37.006Z,82.9
2018-09-27T09:12:45.933Z,81.85
2018-09-27T09:13:54.588Z,81.75
2018-09-27T09:15:03.553Z,81.27
2018-09-27T09:16:12.195Z,79.83
2018-09-27T09:17:20.846Z,79.07
2018-09-27T09:18:29.494Z,78.4
2018-09-27T09:19:38.205Z,77.58
2018-09-27T09:20:46.792Z,77.19
2018-09-27T09:21:55.436Z,76.71
2018-09-27T09:23:04.081Z,77.67
2018-09-27T09:24:12.986Z,77.38
2018-09-27T09:25:21.895Z,77.67
2018-09-27T09:26:30.539Z,78.25
2018-09-27T09:27:39.205Z,79.3
2018-09-27T09:28:47.830Z,79.11
2018-09-27T09:29:56.517Z,78.25
2018-09-27T09:31:05.297Z,78.63
2018-09-27T09:32:14.209Z,79.3
2018-09-27T09:33:22.856Z,79.21
2018-09-27T09:34:32.109Z,80.35
2018-09-27T09:35:40.784Z,80.93
2018-09-27T09:36:49.664Z,79.63
2018-09-27T09:37:58.309Z,79.05
2018-09-27T09:39:06.959Z,77.61
2018-09-27T09:40:15.605Z,76.94
2018-09-27T09:41:24.510Z,76.37
2018-09-27T09:42:33.155Z,75.6
2018-09-27T09:43:41.798Z,77.42
2018-09-27T09:44:50.454Z,78.96
2018-09-27T09:45:59.094Z,79.44
2018-09-27T09:47:07.745Z,80.58
2018-09-27T09:48:16.646Z,77.42
2018-09-27T09:49:25.564Z,77.13
2018-09-27T09:50:34.204Z,75.02
2018-09-27T09:51:42.856Z,73.68
2018-09-27T09:52:51.500Z,72.91
2018-09-27T09:54:00.153Z,73.81
2018-09-27T09:55:08.812Z,72.43
2018-09-27T09:56:17.463Z,73.81
2018-09-27T09:57:26.099Z,74.58
2018-09-27T09:58:34.749Z,75.06
2018-09-27T09:59:43.397Z,75.45
2018-09-27T10:00:52.049Z,76.79
2018-09-27T10:02:00.694Z,75.35
2018-09-27T10:03:09.332Z,74.29
2018-09-27T10:04:17.983Z,75.25
2018-09-27T10:05:26.626Z,77.08
2018-09-27T10:06:35.281Z,75.73
2018-09-27T10:07:43.918Z,77.94
2018-09-27T10:08:52.605Z,76.21
2018-09-27T10:10:01.206Z,72.85
2018-09-27T10:11:09.865Z,72.47
2018-09-27T10:12:18.501Z,71.12
2018-09-27T10:13:27.153Z,73.91
2018-09-27T10:14:35.798Z,73.24
2018-09-27T10:15:44.730Z,70.26
2018-09-27T10:16:53.373Z,69.59
2018-09-27T10:18:02.285Z,69.24
2018-09-27T10:19:10.927Z,69.24
2018-09-27T10:20:19.571Z,68.57
2018-09-27T10:21:28.275Z,67.99
2018-09-27T10:22:36.876Z,68.08
2018-09-27T10:23:45.525Z,68.76
2018-09-27T10:24:54.161Z,68.66
2018-09-27T10:26:03.081Z,68.18
2018-09-27T10:27:11.728Z,68.57
2018-09-27T10:28:20.380Z,66.84
2018-09-27T10:29:29.283Z,65.53
2018-09-27T10:30:37.940Z,64.09
2018-09-27T10:31:46.847Z,64.37
2018-09-27T10:32:55.767Z,64.56
2018-09-27T10:34:04.723Z,63.7
2018-09-27T10:35:13.326Z,63.6
2018-09-27T10:36:21.976Z,64.22
2018-09-27T10:37:30.628Z,64.28
2018-09-27T10:38:39.560Z,65.43
2018-09-27T10:39:48.199Z,65.43
2018-09-27T10:40:56.847Z,65.08
2018-09-27T10:42:05.495Z,65.94
2018-09-27T10:43:14.148Z,65.46
2018-09-27T10:44:23.053Z,65.08
2018-09-27T10:45:31.704Z,64.12
2018-09-27T10:46:40.885Z,65.17
2018-09-27T10:47:49.803Z,65.66
2018-09-27T10:48:58.722Z,64.56
2018-09-27T10:50:07.366Z,64.69
2018-09-27T10:51:16.558Z,65.14
2018-09-27T10:52:25.192Z,64.69
2018-09-27T10:53:33.836Z,64.09
2018-09-27T10:54:42.482Z,64.31
2018-09-27T10:55:51.128Z,64.12
2018-09-27T10:56:59.824Z,64.02
2018-09-27T10:58:08.429Z,64.98
2018-09-27T10:59:17.074Z,65.46
2018-09-27T11:00:25.725Z,65.27
2018-09-27T11:01:34.363Z,64.98
2018-09-27T11:02:43.015Z,65.08
2018-09-27T11:03:51.660Z,65.08
2018-09-27T11:05:00.312Z,64.4
2018-09-27T11:06:08.954Z,63.35
2018-09-27T11:07:17.872Z,64.5
2018-09-27T11:08:26.518Z,63.86
2018-09-27T11:09:35.166Z,63.67
2018-09-27T11:10:43.811Z,64.43
2018-09-27T11:11:52.722Z,63.57
2018-09-27T11:13:01.678Z,64.25
2018-09-27T11:14:10.880Z,64.43
2018-09-27T11:15:19.770Z,63.95
2018-09-27T11:16:28.744Z,62.61
2018-09-27T11:17:37.367Z,61.36
2018-09-27T11:18:46.016Z,60.97
2018-09-27T11:19:54.665Z,61.16
2018-09-27T11:21:03.302Z,62.32
2018-09-27T11:22:11.952Z,63.86
2018-09-27T11:23:20.605Z,64.43
2018-09-27T11:24:29.516Z,62.93
2018-09-27T11:25:38.167Z,61.77
2018-09-27T11:26:46.857Z,61.84
2018-09-27T11:27:55.560Z,62.41
2018-09-27T11:29:04.339Z,63.38
2018-09-27T11:30:13.029Z,61
2018-09-27T11:31:21.683Z,60.72
2018-09-27T11:32:30.652Z,60.91
2018-09-27T11:33:39.301Z,61.77
2018-09-27T11:34:47.959Z,62.06
2018-09-27T11:35:56.608Z,61.58
2018-09-27T11:37:05.387Z,61.29
2018-09-27T11:38:14.051Z,62.45
2018-09-27T11:39:22.900Z,61.58
2018-09-27T11:40:31.871Z,60.81
2018-09-27T11:41:41.115Z,60.62
2018-09-27T11:42:49.868Z,60.04
2018-09-27T11:43:59.062Z,59.94
2018-09-27T11:45:08.143Z,60.81
2018-09-27T11:46:16.787Z,60.14
2018-09-27T11:47:25.445Z,60.91
2018-09-27T11:48:34.089Z,60.81
2018-09-27T11:49:42.913Z,60.75
2018-09-27T11:50:51.384Z,60.07
2018-09-27T11:52:00.030Z,59.49
2018-09-27T11:53:08.684Z,59.78
2018-09-27T11:54:17.326Z,59.78
2018-09-27T11:55:25.973Z,59.88
2018-09-27T11:56:34.614Z,59.69
2018-09-27T11:57:43.266Z,60.36
2018-09-27T11:58:51.911Z,60.77
2018-09-27T12:00:00.556Z,61.65
2018-09-27T12:01:09.204Z,61.74
2018-09-27T12:02:17.857Z,61.07
2018-09-27T12:03:26.505Z,60.77
2018-09-27T12:04:35.155Z,60
2018-09-27T12:05:44.068Z,59.81
2018-09-27T12:06:52.720Z,59.91
2018-09-27T12:08:01.660Z,58.17
2018-09-27T12:09:10.309Z,57.69
2018-09-27T12:10:19.240Z,57.98
2018-09-27T12:11:27.884Z,58.08
2018-09-27T12:12:36.532Z,57.98
2018-09-27T12:13:45.266Z,58.08
2018-09-27T12:14:53.915Z,56.63
2018-09-27T12:16:02.561Z,56.15
2018-09-27T12:17:11.520Z,56.63
2018-09-27T12:18:20.168Z,57.02
2018-09-27T12:19:29.128Z,56.44
2018-09-27T12:20:38.472Z,56.92
2018-09-27T12:21:47.387Z,56.25
2018-09-27T12:22:56.348Z,56.73
2018-09-27T12:24:05.256Z,57.69
2018-09-27T12:25:14.165Z,59.14
2018-09-27T12:26:22.819Z,55.87
2018-09-27T12:27:31.728Z,56.15
2018-09-27T12:28:40.507Z,56.82
2018-09-27T12:29:49.026Z,59.23
2018-09-27T12:30:58.059Z,59.23
2018-09-27T12:32:06.598Z,59.72
2018-09-27T12:33:15.247Z,60.58
2018-09-27T12:34:23.897Z,61.07
2018-09-27T12:35:32.546Z,60.1
2018-09-27T12:36:41.304Z,56.15
2018-09-27T12:37:49.880Z,55.48
2018-09-27T12:38:58.582Z,55.09
2018-09-27T12:40:07.147Z,56.82
2018-09-27T12:41:16.066Z,61.65
2018-09-27T12:42:24.774Z,58.27
2018-09-27T12:43:33.355Z,55.29
2018-09-27T12:44:42.007Z,53.94
2018-09-27T12:45:50.680Z,54.52
2018-09-27T12:46:59.819Z,53.09
2018-09-27T12:48:08.956Z,52.61
2018-09-27T12:49:17.489Z,52.52
2018-09-27T12:50:26.430Z,51.75
2018-09-27T12:51:35.169Z,50.98
2018-09-27T12:52:43.774Z,51.17
2018-09-27T12:53:52.354Z,51.07
2018-09-27T12:55:00.990Z,50.98
2018-09-27T12:56:09.713Z,50.49
2018-09-27T12:57:18.593Z,50.78
2018-09-27T12:58:27.302Z,50.78
2018-09-27T12:59:35.893Z,50.3
2018-09-27T13:00:44.551Z,50.3
2018-09-27T13:01:53.271Z,48.93
2018-09-27T13:03:02.061Z,49.73
2018-09-27T13:04:10.635Z,49.91
2018-09-27T13:05:19.754Z,49.24
2018-09-27T13:06:28.712Z,49.24
2018-09-27T13:07:37.619Z,50.88
2018-09-27T13:08:46.446Z,51.26
2018-09-27T13:09:55.158Z,52.13
2018-09-27T13:11:03.570Z,52.71
2018-09-27T13:12:12.246Z,49.41
2018-09-27T13:13:20.921Z,48.83
2018-09-27T13:14:29.815Z,49.41
2018-09-27T13:15:38.745Z,54.44
2018-09-27T13:16:47.392Z,57.02
2018-09-27T13:17:56.310Z,55.38
2018-09-27T13:19:05.594Z,53.55
2018-09-27T13:20:14.207Z,51.34
2018-09-27T13:21:22.841Z,52.59
2018-09-27T13:22:31.528Z,52.2
2018-09-27T13:23:40.467Z,52.87
2018-09-27T13:24:49.423Z,51.34
2018-09-27T13:25:58.034Z,52.3
2018-09-27T13:27:06.819Z,52.01
2018-09-27T13:28:15.336Z,53.27
2018-09-27T13:29:23.977Z,52.11
2018-09-27T13:30:32.631Z,51.53
2018-09-27T13:31:41.274Z,51.05
2018-09-27T13:32:50.201Z,51.43
2018-09-27T13:33:58.868Z,51.72
2018-09-27T13:35:07.491Z,53.65
2018-09-27T13:36:16.402Z,52.01
2018-09-27T13:37:25.059Z,51.53
2018-09-27T13:38:33.703Z,52.59
2018-09-27T13:39:42.353Z,54.52
2018-09-27T13:40:50.996Z,55.19
2018-09-27T13:41:59.643Z,53.94
2018-09-27T13:43:08.370Z,52.59
2018-09-27T13:44:16.947Z,52.4
2018-09-27T13:45:25.600Z,52.59
2018-09-27T13:46:34.303Z,52.59
2018-09-27T13:47:43.165Z,51.43
2018-09-27T13:48:52.106Z,52.01
2018-09-27T13:50:00.755Z,51.72
2018-09-27T13:51:09.690Z,53.74
2018-09-27T13:52:18.312Z,54.42
2018-09-27T13:53:26.963Z,54.9
2018-09-27T13:54:35.870Z,53.84
2018-09-27T13:55:44.509Z,55.48
2018-09-27T13:56:53.246Z,55.29
2018-09-27T13:58:01.814Z,55.38
2018-09-27T13:59:10.461Z,54.32
2018-09-27T14:00:19.113Z,52.97
2018-09-27T14:01:27.753Z,52.69
2018-09-27T14:02:36.408Z,52.2
2018-09-27T14:03:45.056Z,52.59
2018-09-27T14:04:53.712Z,51.43
2018-09-27T14:06:02.354Z,52.87
2018-09-27T14:07:11.275Z,53.94
2018-09-27T14:08:20.185Z,54.13
2018-09-27T14:09:29.116Z,56.35
2018-09-27T14:10:38.019Z,56.82
2018-09-27T14:11:46.669Z,55.57
2018-09-27T14:12:55.315Z,53.62
2018-09-27T14:14:03.971Z,52.27
2018-09-27T14:15:12.619Z,52.75
2018-09-27T14:16:21.261Z,56.8
2018-09-27T14:17:29.913Z,56.22
2018-09-27T14:18:38.817Z,57.18
2018-09-27T14:19:47.480Z,55.55
2018-09-27T14:20:56.384Z,53.91
2018-09-27T14:22:05.038Z,55.55
2018-09-27T14:23:13.675Z,54.39
2018-09-27T14:24:22.333Z,53.33
2018-09-27T14:25:31.253Z,53.23
2018-09-27T14:26:39.896Z,51.6
2018-09-27T14:27:48.535Z,51.5
2018-09-27T14:28:57.192Z,51.5
2018-09-27T14:30:05.839Z,52.95
2018-09-27T14:31:14.750Z,53.05
2018-09-27T14:32:23.436Z,52.08
2018-09-27T14:33:32.042Z,52.85
2018-09-27T14:34:40.696Z,53.53
2018-09-27T14:35:49.342Z,53.05
2018-09-27T14:36:57.997Z,54.3
2018-09-27T14:38:06.903Z,56.87
2018-09-27T14:39:15.560Z,52.73
2018-09-27T14:40:24.470Z,53.21
2018-09-27T14:41:33.181Z,55.33
2018-09-27T14:42:41.820Z,55.62
2018-09-27T14:43:50.414Z,53.59
2018-09-27T14:44:59.321Z,54.85
2018-09-27T14:46:08.234Z,56
2018-09-27T14:47:16.878Z,56.29